Valliant, Oklahoma
Current Conditions -  °F | °C
As of 2:35 AM on Monday 26 Jan 2015 (Local Time) from K4O4 Reporting Station
Clear Clear  
Wind Chill:   Ceiling: Unl
Heat Index:   Visibility: 10mi
Dew Point: -1°   Wind: 5mph
Humidity: 75%   Direction: 320°NW
Pressure: 30.15"   Gusts: NA
Location:  34°N, 95.09°W
Report Text: K4O4 260835Z AUTO 32004KT 10SM CLR 03/M01 A3015 RMK AO2
Loading
Personal Weather Stations






























Interactive Weather Map New forecast layout! Learn more

10-Day Weather Forecast

Advertisements
Track Severe Weather on mobile